Time;durP1;ratioP1;P1;durP2;ratioP2;P2;SDS_P1;SDS_P2;PMS_P1;PMS_P2;Temp;Humidity;BMP_temperature;BMP_pressure;BME280_temperature;BME280_humidity;BME280_pressure;Samples;Min_cycle;Max_cycle;Signal;HPM_P1;HPM_P2
2021/01/25 00:03:03;;;;;;;25.35;18.12;;;;;;;-0.17;100.00;98556.25;3435409;86;25766;-76
2021/01/25 00:08:05;;;;;;;25.03;17.80;;;;;;;-0.22;100.00;98555.52;3435454;86;34956;-75
2021/01/25 00:13:06;;;;;;;21.60;15.43;;;;;;;-0.24;100.00;98557.31;3435333;86;25837;-77
2021/01/25 00:18:07;;;;;;;25.03;17.00;;;;;;;-0.30;100.00;98550.92;3435367;86;25806;-77
2021/01/25 00:23:08;;;;;;;25.90;18.00;;;;;;;-0.30;100.00;98553.55;3435551;86;25823;-76
2021/01/25 00:28:11;;;;;;;24.27;15.57;;;;;;;-0.22;100.00;98564.69;3435341;86;25796;-69
2021/01/25 00:33:13;;;;;;;23.77;17.60;;;;;;;-0.20;100.00;98565.48;3435372;86;30961;-76
2021/01/25 00:38:18;;;;;;;24.17;16.20;;;;;;;-0.14;100.00;98573.64;3435422;86;25698;-77
2021/01/25 00:43:19;;;;;;;24.43;17.50;;;;;;;-0.13;100.00;98577.98;3435550;85;30979;-75
2021/01/25 00:48:20;;;;;;;22.03;16.00;;;;;;;-0.09;100.00;98574.84;3435383;86;25765;-69
2021/01/25 00:53:21;;;;;;;20.43;15.93;;;;;;;-0.09;100.00;98563.90;3435391;86;25809;-76
2021/01/25 00:58:22;;;;;;;25.60;17.33;;;;;;;0.06;100.00;98569.20;3435351;86;25915;-70
2021/01/25 01:03:28;;;;;;;20.63;15.97;;;;;;;0.12;100.00;98570.35;3435396;86;25796;-76
2021/01/25 01:08:29;;;;;;;22.87;15.30;;;;;;;0.14;100.00;98571.14;3439673;86;30863;-75
2021/01/25 01:13:30;;;;;;;22.93;16.63;;;;;;;0.18;100.00;98578.47;3441096;86;25774;-76
2021/01/25 01:18:34;;;;;;;24.97;16.00;;;;;;;0.23;100.00;98583.59;3435395;85;25777;-76
2021/01/25 01:23:36;;;;;;;22.47;15.20;;;;;;;0.13;100.00;98590.41;3435437;86;30908;-76
2021/01/25 01:28:38;;;;;;;23.53;16.50;;;;;;;0.19;100.00;98589.84;3435418;86;30959;-75
2021/01/25 01:33:39;;;;;;;22.70;16.13;;;;;;;0.26;100.00;98592.70;3435165;86;30935;-75
2021/01/25 01:38:41;;;;;;;22.53;15.93;;;;;;;0.22;100.00;98594.98;3435100;86;25782;-75
2021/01/25 01:43:42;;;;;;;21.83;15.70;;;;;;;0.20;100.00;98582.39;3414688;85;31003;-76
2021/01/25 01:48:43;;;;;;;21.97;16.60;;;;;;;0.25;100.00;98593.59;3409106;87;25815;-76
2021/01/25 01:53:45;;;;;;;23.23;16.20;;;;;;;0.24;100.00;98599.30;3409300;87;25865;-70
2021/01/25 01:58:46;;;;;;;19.70;15.83;;;;;;;0.21;100.00;98588.05;3409399;85;25791;-75
2021/01/25 02:03:47;;;;;;;22.77;15.67;;;;;;;0.27;100.00;98590.50;3409159;87;25711;-76
2021/01/25 02:08:50;;;;;;;22.87;16.83;;;;;;;0.27;100.00;98586.56;3409047;87;25817;-76
2021/01/25 02:13:52;;;;;;;21.77;16.13;;;;;;;0.28;100.00;98594.84;3409444;87;31051;-69
2021/01/25 02:18:53;;;;;;;23.27;15.27;;;;;;;0.30;100.00;98593.02;3409302;87;30950;-75
2021/01/25 02:24:25;;;;;;;20.10;15.57;;;;;;;0.36;100.00;98607.27;3409289;87;26239;-75
2021/01/25 02:29:26;;;;;;;20.97;15.77;;;;;;;0.28;100.00;98606.17;3408926;87;31533;-76
2021/01/25 02:34:30;;;;;;;17.80;13.50;;;;;;;0.26;100.00;98600.09;3409503;87;25729;-75
2021/01/25 02:39:32;;;;;;;20.20;15.30;;;;;;;0.26;100.00;98600.56;3409200;85;31397;-76
2021/01/25 02:44:36;;;;;;;24.27;15.90;;;;;;;0.26;100.00;98603.19;3409092;86;31394;-75
2021/01/25 02:49:38;;;;;;;21.70;15.33;;;;;;;0.23;100.00;98608.06;3409260;87;31394;-75
2021/01/25 02:54:39;;;;;;;22.80;16.00;;;;;;;0.26;100.00;98609.27;3409454;87;31021;-75
2021/01/25 02:59:41;;;;;;;23.00;16.70;;;;;;;0.29;100.00;98609.20;3409484;87;30988;-75
2021/01/25 03:04:43;;;;;;;23.17;16.50;;;;;;;0.31;100.00;98603.91;3409086;87;30980;-76
2021/01/25 03:09:44;;;;;;;20.10;14.63;;;;;;;0.32;100.00;98605.64;3387949;87;30919;-76
2021/01/25 03:14:46;;;;;;;20.47;15.43;;;;;;;0.29;100.00;98607.02;3409674;87;25874;-76
2021/01/25 03:19:47;;;;;;;22.30;15.80;;;;;;;0.29;100.00;98613.57;3409322;87;30972;-75
2021/01/25 03:24:48;;;;;;;19.93;14.43;;;;;;;0.26;100.00;98614.52;3409583;87;25815;-76
2021/01/25 03:29:49;;;;;;;21.80;15.60;;;;;;;0.29;100.00;98614.87;3409410;87;25730;-76
2021/01/25 03:34:50;;;;;;;22.03;15.93;;;;;;;0.32;100.00;98613.50;3409278;87;26339;-75
2021/01/25 03:39:51;;;;;;;23.63;15.47;;;;;;;0.35;100.00;98612.55;3409406;87;25811;-70
2021/01/25 03:44:52;;;;;;;19.90;14.57;;;;;;;0.29;100.00;98610.52;3465726;85;25737;-75
2021/01/25 03:49:54;;;;;;;22.50;15.20;;;;;;;0.32;100.00;98614.81;3473212;85;25852;-69
2021/01/25 03:54:55;;;;;;;20.40;14.53;;;;;;;0.34;100.00;98619.57;3473585;85;25831;-76
2021/01/25 03:59:56;;;;;;;25.20;17.83;;;;;;;0.36;100.00;98620.37;3473452;85;34873;-76
2021/01/25 04:04:57;;;;;;;21.60;14.67;;;;;;;0.36;100.00;98630.00;3473275;85;34968;-75
2021/01/25 04:09:58;;;;;;;20.40;15.83;;;;;;;0.36;100.00;98636.56;3473625;85;34845;-69
2021/01/25 04:14:59;;;;;;;19.70;14.80;;;;;;;0.40;100.00;98648.24;3473353;85;31185;-76
2021/01/25 04:20:00;;;;;;;16.90;12.80;;;;;;;0.35;100.00;98650.13;3473114;85;34944;-75
2021/01/25 04:25:05;;;;;;;18.40;14.30;;;;;;;0.40;100.00;98657.42;3473207;84;35254;-76
2021/01/25 04:30:10;;;;;;;20.50;14.20;;;;;;;0.41;100.00;98657.83;3473214;85;31245;-75
2021/01/25 04:35:15;;;;;;;20.37;14.23;;;;;;;0.41;100.00;98660.45;3471489;85;25848;-76
2021/01/25 04:40:16;;;;;;;16.65;12.60;;;;;;;0.39;100.00;98658.77;3472888;85;33736;-75
2021/01/25 04:45:17;;;;;;;21.13;15.00;;;;;;;0.38;100.00;98653.97;3472600;85;25880;-75
2021/01/25 04:50:19;;;;;;;18.50;14.10;;;;;;;0.41;100.00;98643.84;3472714;85;25787;-76
2021/01/25 04:55:21;;;;;;;19.77;14.47;;;;;;;0.39;100.00;98649.14;3449153;85;25821;-76
2021/01/25 05:00:23;;;;;;;21.43;15.30;;;;;;;0.39;100.00;98650.45;3472857;85;30982;-76
2021/01/25 05:05:24;;;;;;;20.17;13.93;;;;;;;0.36;100.00;98662.31;3473127;84;31558;-70
2021/01/25 05:10:27;;;;;;;19.70;15.47;;;;;;;0.39;100.00;98653.53;3472721;85;31035;-75
2021/01/25 05:15:33;;;;;;;19.20;14.03;;;;;;;0.41;100.00;98656.52;3472580;85;31230;-70
2021/01/25 05:20:35;;;;;;;18.33;13.00;;;;;;;0.38;100.00;98657.89;3473199;85;30977;-76
2021/01/25 05:25:36;;;;;;;20.63;14.00;;;;;;;0.37;100.00;98663.19;3472621;84;25879;-76
2021/01/25 05:30:37;;;;;;;21.03;14.73;;;;;;;0.41;100.00;98656.95;3472740;85;25823;-77
2021/01/25 05:35:43;;;;;;;18.40;13.93;;;;;;;0.41;100.00;98664.38;3473000;85;25796;-75
2021/01/25 05:40:48;;;;;;;19.30;15.27;;;;;;;0.42;100.00;98668.70;3473018;85;31044;-76
2021/01/25 05:45:49;;;;;;;18.73;14.57;;;;;;;0.34;100.00;98673.73;3436964;85;35343;-76
2021/01/25 05:50:50;;;;;;;18.00;14.30;;;;;;;0.34;100.00;98672.00;3435320;86;25787;-76
2021/01/25 05:55:51;;;;;;;21.70;15.70;;;;;;;0.37;100.00;98673.21;3434991;86;26393;-75
2021/01/25 06:00:52;;;;;;;19.17;14.85;;;;;;;0.33;100.00;98672.89;3434142;85;25879;-76
2021/01/25 06:05:55;;;;;;;21.43;14.73;;;;;;;0.29;100.00;98671.23;3434514;86;25883;-76
2021/01/25 06:11:10;;;;;;;19.87;14.77;;;;;;;0.30;100.00;98665.97;3423417;86;25830;-77
2021/01/25 06:16:12;;;;;;;22.30;15.43;;;;;;;0.30;100.00;98671.65;3434854;86;31458;-77
2021/01/25 06:21:21;;;;;;;20.23;14.57;;;;;;;0.38;100.00;98674.94;3430655;86;30990;-76
2021/01/25 06:26:26;;;;;;;21.27;15.13;;;;;;;0.31;100.00;98674.69;3399637;86;30609;-76
2021/01/25 06:31:27;;;;;;;20.80;15.30;;;;;;;0.39;100.00;98671.42;3391764;86;31125;-68
2021/01/25 06:36:34;;;;;;;23.23;15.93;;;;;;;0.42;100.00;98675.72;3398997;86;25961;-76
2021/01/25 06:41:38;;;;;;;20.63;15.50;;;;;;;0.38;100.00;98683.27;3401806;86;31027;-68
2021/01/25 06:46:40;;;;;;;21.10;15.15;;;;;;;0.36;100.00;98690.30;3449754;84;25815;-76
2021/01/25 06:51:43;;;;;;;22.30;16.60;;;;;;;0.40;100.00;98686.69;3459720;84;44968;-76
2021/01/25 06:56:52;;;;;;;21.60;16.47;;;;;;;0.35;100.00;98696.00;3459322;85;31010;-75
2021/01/25 07:01:55;;;;;;;21.10;15.57;;;;;;;0.33;100.00;98696.48;3459492;85;31088;-79
2021/01/25 07:06:57;;;;;;;20.33;16.03;;;;;;;0.34;100.00;98699.95;3464887;84;39787;-76
2021/01/25 07:12:01;;;;;;;23.87;17.60;;;;;;;0.41;100.00;98711.58;3464322;84;31172;-71
2021/01/25 07:17:02;;;;;;;22.70;16.53;;;;;;;0.41;100.00;98706.33;3453835;84;31066;-76
2021/01/25 07:22:04;;;;;;;22.03;16.27;;;;;;;0.32;100.00;98713.11;3457752;84;25826;-76
2021/01/25 07:27:06;;;;;;;25.23;18.13;;;;;;;0.31;100.00;98705.70;3452908;84;31166;-75
2021/01/25 07:32:12;;;;;;;26.73;19.57;;;;;;;0.26;100.00;98702.78;3458267;84;31066;-77
2021/01/25 07:37:13;;;;;;;32.33;21.52;;;;;;;0.40;100.00;98707.22;3456183;84;25852;-76
2021/01/25 07:42:14;;;;;;;30.80;21.27;;;;;;;0.36;100.00;98708.19;3458551;84;25840;-75
2021/01/25 07:47:22;;;;;;;28.10;19.50;;;;;;;0.42;100.00;98709.80;3409161;86;25757;-69
2021/01/25 07:52:23;;;;;;;26.70;20.10;;;;;;;0.43;100.00;98697.10;3386539;87;31160;-76
2021/01/25 07:57:27;;;;;;;25.30;19.10;;;;;;;0.40;100.00;98708.53;3409529;87;26161;-68
2021/01/25 08:02:28;;;;;;;26.50;18.37;;;;;;;0.38;100.00;98706.39;3326057;87;29966;-70
2021/01/25 08:07:29;;;;;;;23.87;17.03;;;;;;;0.36;100.00;98710.80;3333086;87;25980;-76
2021/01/25 08:12:31;;;;;;;23.13;16.77;;;;;;;0.37;100.00;98712.53;3334080;87;25853;-68
2021/01/25 08:17:37;;;;;;;29.57;21.83;;;;;;;0.41;100.00;98723.80;3413046;86;29141;-68
2021/01/25 08:22:44;;;;;;;;;;;;;;;0.49;100.00;98721.84;3388619;87;25865;-69
2021/01/25 08:28:09;;;;;;;24.23;16.97;;;;;;;0.61;100.00;98728.55;3337897;87;31000;-76
2021/01/25 08:33:15;;;;;;;21.35;16.17;;;;;;;0.57;100.00;98718.58;3355403;88;25857;-68
2021/01/25 08:38:31;;;;;;;31.37;19.77;;;;;;;0.47;100.00;98723.20;3332184;87;31006;-75
2021/01/25 08:43:34;;;;;;;25.63;18.47;;;;;;;0.56;100.00;98722.56;3336664;87;35602;-77
2021/01/25 08:48:36;;;;;;;27.40;19.70;;;;;;;0.57;100.00;98721.20;3259179;91;30965;-75
2021/01/25 08:53:37;;;;;;;27.37;19.47;;;;;;;0.70;100.00;98721.75;3299325;89;31005;-69
2021/01/25 08:58:38;;;;;;;31.17;20.47;;;;;;;0.69;100.00;98729.64;3293765;90;31431;-74
2021/01/25 09:03:39;;;;;;;24.00;17.30;;;;;;;0.61;100.00;98732.02;3259274;91;25962;-76
2021/01/25 09:08:41;;;;;;;22.40;16.90;;;;;;;0.66;100.00;98720.09;3303080;88;25890;-75
2021/01/25 09:13:42;;;;;;;24.37;18.83;;;;;;;0.69;100.00;98718.72;3304493;89;25907;-75
2021/01/25 09:18:43;;;;;;;26.33;19.60;;;;;;;0.68;100.00;98730.11;3258539;91;25836;-75
2021/01/25 09:23:44;;;;;;;25.27;18.40;;;;;;;0.64;100.00;98737.63;3297888;89;26361;-69
2021/01/25 09:28:45;;;;;;;22.33;16.13;;;;;;;0.70;100.00;98745.36;3299555;89;25790;-73
2021/01/25 09:33:46;;;;;;;24.23;18.15;;;;;;;0.77;100.00;98751.29;3298262;90;26036;-76
2021/01/25 09:38:47;;;;;;;22.43;16.93;;;;;;;0.69;100.00;98748.88;3298186;90;34963;-73
2021/01/25 09:43:48;;;;;;;18.70;14.73;;;;;;;0.65;100.00;98745.06;3312620;87;34985;-68
2021/01/25 09:48:50;;;;;;;20.70;15.60;;;;;;;0.68;100.00;98748.47;3371209;87;34965;-75
2021/01/25 09:53:51;;;;;;;23.50;17.77;;;;;;;0.71;100.00;98740.50;3340591;88;34170;-73
2021/01/25 09:58:52;;;;;;;21.33;16.13;;;;;;;0.69;100.00;98731.83;3330283;86;34974;-75
2021/01/25 10:03:53;;;;;;;24.60;17.90;;;;;;;0.63;100.00;98736.78;3300811;90;34818;-73
2021/01/25 10:08:56;;;;;;;20.77;14.87;;;;;;;0.71;100.00;98745.74;3307307;90;35046;-74
2021/01/25 10:13:57;;;;;;;22.87;17.17;;;;;;;0.72;100.00;98740.06;3305060;90;25514;-75
2021/01/25 10:18:58;;;;;;;23.07;15.47;;;;;;;0.72;100.00;98731.73;3299999;90;35025;-74
2021/01/25 10:23:59;;;;;;;22.50;16.87;;;;;;;0.69;100.00;98729.20;3298715;90;35143;-69
2021/01/25 10:29:00;;;;;;;21.00;15.70;;;;;;;0.80;100.00;98724.98;3298967;90;35123;-68
2021/01/25 10:34:01;;;;;;;26.60;18.23;;;;;;;0.72;100.00;98735.66;3300709;88;34828;-74
2021/01/25 10:39:03;;;;;;;23.70;18.37;;;;;;;0.44;100.00;98731.14;3299210;88;35052;-75
2021/01/25 10:44:05;;;;;;;21.73;18.03;;;;;;;0.53;100.00;98726.10;3358047;86;34987;-75
2021/01/25 10:49:06;;;;;;;22.13;16.17;;;;;;;0.51;100.00;98729.67;3387576;87;34913;-68
2021/01/25 10:54:07;;;;;;;18.63;13.87;;;;;;;0.55;100.00;98724.77;3387315;87;34937;-74
2021/01/25 10:59:08;;;;;;;20.93;15.63;;;;;;;0.44;100.00;98725.89;3387206;87;34962;-75
2021/01/25 11:04:10;;;;;;;22.00;15.03;;;;;;;0.32;100.00;98723.59;3387543;87;34863;-74
2021/01/25 11:09:11;;;;;;;21.47;16.03;;;;;;;0.47;100.00;98724.52;3388089;86;34931;-69
2021/01/25 11:14:12;;;;;;;21.43;17.30;;;;;;;0.63;100.00;98725.44;3387769;86;34857;-74
2021/01/25 11:19:13;;;;;;;24.63;16.97;;;;;;;0.51;100.00;98724.42;3388728;87;34921;-74
2021/01/25 11:24:14;;;;;;;21.20;15.90;;;;;;;0.49;100.00;98719.23;3388286;87;35359;-75
2021/01/25 11:29:18;;;;;;;23.50;17.20;;;;;;;0.55;100.00;98722.16;3389647;87;35450;-75
2021/01/25 11:34:18;;;;;;;26.97;18.40;;;;;;;0.45;100.00;98714.52;3389288;87;35447;-74
2021/01/25 11:39:19;;;;;;;24.77;18.00;;;;;;;0.50;100.00;98706.53;3390974;87;28151;-75
2021/01/25 11:44:23;;;;;;;22.47;17.87;;;;;;;0.56;100.00;98706.37;3390918;85;27200;-70
2021/01/25 11:49:25;;;;;;;25.60;17.97;;;;;;;0.52;100.00;98706.48;3390565;87;34938;-75
2021/01/25 11:54:26;;;;;;;25.37;16.97;;;;;;;0.40;100.00;98708.53;3379549;87;28195;-74
2021/01/25 11:59:27;;;;;;;24.47;18.87;;;;;;;0.50;100.00;98711.78;3394129;87;27125;-72
2021/01/25 12:04:28;;;;;;;24.77;17.50;;;;;;;0.64;100.00;98695.66;3392350;87;27693;-70
2021/01/25 12:09:30;;;;;;;21.02;16.07;;;;;;;0.56;100.00;98701.59;3387844;87;27805;-74
2021/01/25 12:14:31;;;;;;;21.03;15.97;;;;;;;0.51;100.00;98698.20;3388005;87;28733;-73
2021/01/25 12:19:32;;;;;;;26.43;18.17;;;;;;;0.56;100.00;98695.03;3388336;87;27307;-73
2021/01/25 12:24:33;;;;;;;30.60;19.73;;;;;;;0.65;100.00;98693.45;3387893;87;25975;-74
2021/01/25 12:29:34;;;;;;;25.40;17.43;;;;;;;0.49;100.00;98690.85;3389537;87;25890;-75
2021/01/25 12:34:36;;;;;;;23.97;17.97;;;;;;;0.43;100.00;98687.47;3368167;87;25815;-69
2021/01/25 12:39:37;;;;;;;26.27;18.87;;;;;;;0.51;100.00;98695.58;3318222;87;29239;-74
2021/01/25 12:44:38;;;;;;;29.13;18.10;;;;;;;0.46;100.00;98686.09;3311706;88;26332;-74
2021/01/25 12:49:40;;;;;;;27.93;18.80;;;;;;;0.42;100.00;98691.45;3289332;88;26006;-75
2021/01/25 12:54:41;;;;;;;23.27;18.77;;;;;;;0.46;100.00;98688.71;3311139;88;25873;-75
2021/01/25 12:59:42;;;;;;;28.00;17.55;;;;;;;0.52;100.00;98687.70;3316231;88;25816;-75
2021/01/25 13:04:43;;;;;;;23.70;16.50;;;;;;;0.47;100.00;98694.80;3311229;88;26171;-75
2021/01/25 13:09:45;;;;;;;23.52;16.48;;;;;;;0.66;100.00;98701.73;3311102;88;25841;-69
2021/01/25 13:14:46;;;;;;;21.53;15.63;;;;;;;0.71;100.00;98706.86;3311170;88;25848;-69
2021/01/25 13:19:47;;;;;;;18.97;14.37;;;;;;;0.64;100.00;98707.47;3321074;88;25777;-74
2021/01/25 13:24:48;;;;;;;19.43;13.53;;;;;;;0.64;100.00;98714.02;3340149;88;25959;-73
2021/01/25 13:29:49;;;;;;;18.10;13.60;;;;;;;0.67;100.00;98717.04;3258111;89;25823;-75
2021/01/25 13:34:50;;;;;;;18.63;13.33;;;;;;;0.66;100.00;98717.47;3330978;88;26309;-72
2021/01/25 13:39:51;;;;;;;19.40;13.60;;;;;;;0.58;100.00;98727.30;3410852;86;25945;-68
2021/01/25 13:44:52;;;;;;;19.97;13.83;;;;;;;0.71;100.00;98728.70;3400579;85;25831;-74
2021/01/25 13:49:53;;;;;;;20.30;14.23;;;;;;;0.68;100.00;98731.42;3417269;85;32770;-75
2021/01/25 13:54:54;;;;;;;17.60;13.97;;;;;;;0.61;100.00;98727.23;3420938;86;33120;-74
2021/01/25 13:59:55;;;;;;;24.43;15.83;;;;;;;0.60;100.00;98733.38;3421914;86;25862;-74
2021/01/25 14:04:56;;;;;;;22.23;15.77;;;;;;;0.69;100.00;98748.00;3421571;85;25858;-69
2021/01/25 14:09:58;;;;;;;23.57;15.07;;;;;;;0.53;100.00;98750.16;3421858;86;25751;-75
2021/01/25 14:14:59;;;;;;;22.17;15.63;;;;;;;0.55;100.00;98757.55;3421668;86;25788;-75
2021/01/25 14:20:00;;;;;;;24.30;15.87;;;;;;;0.66;100.00;98764.68;3421676;86;25819;-74
2021/01/25 14:25:07;;;;;;;26.10;16.70;;;;;;;0.63;100.00;98768.25;3421821;86;25831;-75
2021/01/25 14:30:19;;;;;;;21.30;15.57;;;;;;;0.58;100.00;98777.12;3421529;86;32558;-74
2021/01/25 14:35:21;;;;;;;20.93;15.70;;;;;;;0.60;100.00;98781.89;3422280;86;33010;-75
2021/01/25 14:40:25;;;;;;;23.80;15.30;;;;;;;0.61;100.00;98790.17;3421552;86;33114;-73
2021/01/25 14:45:29;;;;;;;20.23;13.83;;;;;;;0.57;100.00;98791.13;3416605;86;32955;-73
2021/01/25 14:50:32;;;;;;;23.37;15.87;;;;;;;0.65;100.00;98800.98;3396818;87;25788;-73
2021/01/25 14:55:34;;;;;;;21.77;15.80;;;;;;;0.73;100.00;98808.22;3397097;87;33098;-73
2021/01/25 15:00:41;;;;;;;25.83;16.80;;;;;;;0.65;100.00;98810.16;3392159;87;32592;-73
2021/01/25 15:05:43;;;;;;;24.87;16.67;;;;;;;0.54;100.00;98805.19;3388430;86;33090;-74
2021/01/25 15:10:44;;;;;;;22.80;15.60;;;;;;;0.57;100.00;98818.66;3382973;86;25752;-74
2021/01/25 15:15:45;;;;;;;17.50;12.90;;;;;;;0.56;100.00;98816.97;3383662;86;26328;-72
2021/01/25 15:20:47;;;;;;;18.23;12.50;;;;;;;0.56;100.00;98822.21;3383773;86;25846;-68
2021/01/25 15:25:48;;;;;;;19.57;13.77;;;;;;;0.60;100.00;98827.78;3383089;86;25900;-74
2021/01/25 15:30:50;;;;;;;19.57;13.63;;;;;;;0.54;100.00;98822.69;3414206;86;32513;-74
2021/01/25 15:35:51;;;;;;;19.67;13.93;;;;;;;0.53;100.00;98831.45;3409049;87;25878;-75
2021/01/25 15:40:55;;;;;;;20.13;14.23;;;;;;;0.51;100.00;98848.97;3377136;86;25958;-73
2021/01/25 15:45:56;;;;;;;16.33;12.63;;;;;;;0.43;100.00;98852.63;3416403;86;32530;-74
2021/01/25 15:50:57;;;;;;;19.63;13.93;;;;;;;0.40;100.00;98856.66;3424139;85;33093;-74
2021/01/25 15:55:58;;;;;;;17.97;14.80;;;;;;;0.43;100.00;98866.20;3424046;85;26317;-74
2021/01/25 16:00:59;;;;;;;13.83;10.70;;;;;;;0.23;100.00;98865.34;3419125;85;26462;-75
2021/01/25 16:06:00;;;;;;;15.90;12.30;;;;;;;0.20;100.00;98882.46;3420477;85;26088;-75
2021/01/25 16:11:02;;;;;;;13.98;10.70;;;;;;;0.24;100.00;98879.74;3491667;83;62131;-74
2021/01/25 16:16:09;;;;;;;11.00;8.75;;;;;;;0.14;100.00;98890.00;3520030;84;26205;-72
2021/01/25 16:21:10;;;;;;;12.70;9.60;;;;;;;0.13;100.00;98897.44;3520841;84;32439;-67
2021/01/25 16:26:11;;;;;;;11.10;8.67;;;;;;;0.22;100.00;98889.81;3494030;84;32504;-74
2021/01/25 16:31:13;;;;;;;10.87;8.37;;;;;;;0.14;100.00;98882.98;3514623;83;25883;-69
2021/01/25 16:36:14;;;;;;;8.73;7.73;;;;;;;0.18;100.00;98880.31;3501267;83;26290;-74
2021/01/25 16:41:15;;;;;;;11.47;9.40;;;;;;;0.19;100.00;98884.66;3489643;83;26108;-69
2021/01/25 16:46:16;;;;;;;9.25;7.22;;;;;;;0.18;100.00;98896.03;3501108;83;25915;-76
2021/01/25 16:51:17;;;;;;;10.63;8.50;;;;;;;0.18;100.00;98893.41;3506202;84;25999;-67
2021/01/25 16:56:18;;;;;;;10.03;8.23;;;;;;;0.28;100.00;98902.81;3504372;83;26061;-74
2021/01/25 17:01:19;;;;;;;8.37;7.47;;;;;;;0.26;100.00;98905.45;3488825;84;26033;-73
2021/01/25 17:06:20;;;;;;;6.70;5.80;;;;;;;0.21;100.00;98913.87;3500490;84;26350;-73
2021/01/25 17:11:21;;;;;;;7.27;6.57;;;;;;;0.26;100.00;98914.62;3500466;83;25758;-75
2021/01/25 17:16:23;;;;;;;7.57;5.37;;;;;;;0.28;100.00;98908.06;3500045;83;25872;-67
2021/01/25 17:21:30;;;;;;;9.47;7.13;;;;;;;0.23;100.00;98920.38;3493087;84;26413;-74
2021/01/25 17:26:31;;;;;;;7.53;5.97;;;;;;;0.25;100.00;98929.08;3505661;84;32756;-74
2021/01/25 17:31:32;;;;;;;8.33;7.20;;;;;;;0.09;100.00;98928.09;3495104;83;25798;-69
2021/01/25 17:36:33;;;;;;;11.23;9.23;;;;;;;0.12;100.00;98929.77;3494935;83;25904;-75
2021/01/25 17:46:50;;;;;;;10.03;8.93;;;;;;;0.10;100.00;98921.95;3803091;77;27526;-76
2021/01/25 17:51:51;;;;;;;14.37;10.90;;;;;;;0.19;100.00;98923.97;3705619;80;26734;-74
2021/01/25 17:56:55;;;;;;;9.30;8.23;;;;;;;0.26;100.00;98935.59;3750862;78;27194;-77
2021/01/25 18:01:55;;;;;;;10.77;8.37;;;;;;;0.17;100.00;98936.23;3744359;78;34852;-68
2021/01/25 18:06:56;;;;;;;12.17;8.70;;;;;;;0.15;100.00;98926.64;3744134;77;27227;-73
2021/01/25 18:11:57;;;;;;;10.07;7.60;;;;;;;0.21;100.00;98932.22;3661273;79;33591;-68
2021/01/25 18:16:58;;;;;;;11.03;7.60;;;;;;;0.08;100.00;98936.84;3546926;82;26270;-75
2021/01/25 18:21:59;;;;;;;9.07;7.50;;;;;;;0.08;100.00;98946.01;3542581;82;26402;-75
2021/01/25 18:27:00;;;;;;;11.73;9.43;;;;;;;0.12;100.00;98942.45;3541633;82;25723;-68
2021/01/25 18:32:02;;;;;;;11.67;8.47;;;;;;;0.11;100.00;98938.10;3541118;82;25913;-74
2021/01/25 18:37:04;;;;;;;12.58;9.93;;;;;;;0.17;100.00;98938.86;3541226;83;25786;-75
2021/01/25 18:42:06;;;;;;;10.53;9.27;;;;;;;0.09;100.00;98936.41;3539142;83;28171;-74
2021/01/25 18:47:07;;;;;;;10.17;7.60;;;;;;;0.02;100.00;98948.76;3539150;82;27447;-75
2021/01/25 18:52:08;;;;;;;15.50;12.57;;;;;;;0.09;100.00;98951.67;3539406;83;26803;-74
2021/01/25 18:57:09;;;;;;;15.13;11.23;;;;;;;0.13;100.00;98943.30;3538721;83;29520;-74
2021/01/25 19:02:11;;;;;;;11.37;8.63;;;;;;;0.07;100.00;98946.05;3538367;83;27226;-68
2021/01/25 19:07:12;;;;;;;14.28;10.75;;;;;;;0.01;100.00;98951.42;3537928;83;27168;-70
2021/01/25 19:12:13;;;;;;;15.20;11.33;;;;;;;0.02;100.00;98961.86;3538044;83;25848;-75
2021/01/25 19:17:14;;;;;;;15.60;12.47;;;;;;;0.09;100.00;98958.68;3538038;83;26441;-68
2021/01/25 19:22:15;;;;;;;16.20;13.27;;;;;;;0.11;100.00;98967.35;3537756;83;26347;-76
2021/01/25 19:27:17;;;;;;;14.47;12.27;;;;;;;0.08;100.00;98970.91;3532301;81;28622;-76
2021/01/25 19:32:19;;;;;;;16.67;13.27;;;;;;;0.09;100.00;98988.36;3510385;84;25776;-75
2021/01/25 19:37:20;;;;;;;22.23;16.80;;;;;;;0.21;100.00;98996.89;3510007;84;28254;-69
2021/01/25 19:42:21;;;;;;;14.13;11.17;;;;;;;0.17;100.00;99007.00;3509247;84;26816;-73
2021/01/25 19:47:22;;;;;;;11.53;10.33;;;;;;;0.09;100.00;98994.91;3464137;85;26092;-74
2021/01/25 19:52:23;;;;;;;10.23;8.53;;;;;;;0.19;100.00;99001.28;3465955;85;26100;-72
2021/01/25 19:57:25;;;;;;;11.67;9.90;;;;;;;0.08;100.00;98993.17;3466298;85;25758;-73
2021/01/25 20:02:30;;;;;;;10.63;9.53;;;;;;;0.04;100.00;98995.87;3466183;85;25844;-76
2021/01/25 20:07:37;;;;;;;10.28;8.73;;;;;;;0.11;100.00;99000.11;3466251;84;31185;-70
2021/01/25 20:12:38;;;;;;;11.93;9.17;;;;;;;0.13;100.00;98999.22;3466142;85;34933;-75
2021/01/25 20:17:40;;;;;;;13.80;11.57;;;;;;;0.07;100.00;99005.86;3467227;85;27191;-74
2021/01/25 20:22:45;;;;;;;12.87;9.93;;;;;;;0.11;100.00;99008.85;3466895;85;34888;-74
2021/01/25 20:27:46;;;;;;;8.83;7.33;;;;;;;0.11;100.00;99018.45;3464060;85;34843;-69
2021/01/25 20:32:50;;;;;;;8.67;7.17;;;;;;;0.09;100.00;99020.27;3467049;85;25724;-75
2021/01/25 20:37:51;;;;;;;10.80;9.27;;;;;;;0.02;100.00;99024.74;3461522;84;34940;-75
2021/01/25 20:42:54;;;;;;;12.90;10.27;;;;;;;0.04;100.00;99016.41;3466160;84;34943;-73
2021/01/25 20:47:56;;;;;;;15.77;12.17;;;;;;;0.10;100.00;99023.30;3509015;84;34975;-73
2021/01/25 20:53:03;;;;;;;16.73;12.57;;;;;;;0.00;100.00;99021.31;3508907;84;34919;-68
2021/01/25 20:58:04;;;;;;;14.00;9.10;;;;;;;-0.03;100.00;99013.03;3567696;80;100517;-74
2021/01/25 21:03:11;;;;;;;20.43;14.20;;;;;;;-0.08;100.00;99005.72;3617107;82;26395;-73
2021/01/25 21:08:14;;;;;;;15.87;11.13;;;;;;;-0.08;100.00;99015.34;3616992;81;35009;-75
2021/01/25 21:13:15;;;;;;;16.17;11.40;;;;;;;-0.03;100.00;99018.73;3616321;81;34903;-74
2021/01/25 21:18:19;;;;;;;17.13;11.90;;;;;;;-0.11;100.00;99033.73;3614710;82;34924;-69
2021/01/25 21:23:25;;;;;;;14.13;10.17;;;;;;;-0.07;100.00;99038.03;3615184;82;34888;-72
2021/01/25 21:28:26;;;;;;;;;;;;;;;-0.08;100.00;99044.16;3583036;80;47645;-73
2021/01/25 21:33:28;;;;;;;14.33;10.73;;;;;;;-0.14;100.00;99054.30;3545927;82;27804;-74
2021/01/25 21:38:30;;;;;;;13.13;9.53;;;;;;;-0.14;100.00;99066.55;3554212;82;34909;-74
2021/01/25 21:43:31;;;;;;;11.27;8.67;;;;;;;-0.08;100.00;99072.98;3556041;82;34977;-73
2021/01/25 21:48:32;;;;;;;12.57;10.50;;;;;;;-0.13;100.00;99066.94;3541430;82;27230;-74
2021/01/25 21:53:34;;;;;;;11.93;7.90;;;;;;;-0.10;100.00;99066.89;3545360;82;25906;-73
2021/01/25 21:58:36;;;;;;;11.37;8.83;;;;;;;-0.17;100.00;99082.72;3525344;82;34848;-73
2021/01/25 22:03:37;;;;;;;9.40;7.60;;;;;;;-0.21;100.00;99072.32;3540090;82;26406;-74
2021/01/25 22:08:42;;;;;;;11.00;8.60;;;;;;;-0.13;100.00;99078.30;3545832;82;34911;-73
2021/01/25 22:13:44;;;;;;;8.80;7.50;;;;;;;-0.15;100.00;99084.00;3545552;82;35296;-75
2021/01/25 22:18:45;;;;;;;6.83;6.13;;;;;;;-0.07;100.00;99091.73;3548263;81;34913;-73
2021/01/25 22:23:46;;;;;;;9.33;7.00;;;;;;;-0.11;100.00;99092.23;3559741;82;29145;-74
2021/01/25 22:28:47;;;;;;;7.10;5.17;;;;;;;-0.09;100.00;99088.27;3558893;82;27158;-73
2021/01/25 22:33:48;;;;;;;7.70;6.20;;;;;;;-0.10;100.00;99093.94;3560576;82;27722;-73
2021/01/25 22:38:49;;;;;;;7.17;6.47;;;;;;;-0.13;100.00;99100.56;3558471;82;25770;-74
2021/01/25 22:43:51;;;;;;;8.17;6.13;;;;;;;-0.12;100.00;99097.48;3558958;82;25820;-74
2021/01/25 22:48:53;;;;;;;6.10;5.17;;;;;;;-0.10;98.97;99088.70;3545178;82;27196;-67
2021/01/25 22:53:55;;;;;;;5.83;4.87;;;;;;;-0.14;98.93;99090.97;3545875;82;28183;-74
2021/01/25 22:58:56;;;;;;;6.17;5.43;;;;;;;-0.10;98.71;99090.02;3545254;82;34867;-75
2021/01/25 23:03:57;;;;;;;8.83;6.37;;;;;;;-0.13;99.80;99098.37;3544496;82;25846;-74
2021/01/25 23:08:58;;;;;;;8.37;6.93;;;;;;;-0.24;100.00;99094.20;3545430;82;27209;-74
2021/01/25 23:14:00;;;;;;;11.23;7.53;;;;;;;-0.13;100.00;99093.13;3546065;82;26340;-74
2021/01/25 23:19:01;;;;;;;8.93;7.03;;;;;;;-0.20;100.00;99088.00;3546021;82;25703;-73